Atwood, IN (46502)

12:44 PM EDT on August 30, 2015 (GMT -0400)
Williamson Farms | | Change Station
CLOSE
Current Station
Personal Weather Station
Location: Etna Green, IN
Elevation: 823 ft
Nearby Weather Stations

Elev 823 ft 41.27 °N, 86.05 °W | Updated 13 minutes ago

Overcast
Overcast
75.2 °F
Feels Like 75 °F
N
8.0
Wind Variable Wind from West
Gusts 8.0 mph

Today
High -- | Low -- °F
--% Chance of Precip.
Yesterday
High -- | Low -- °F
Precip. -- in
7:08 AM 8:20 PM
Full, 99% visible
Pressure 30.08 in
Visibility 10.0 miles
Clouds Mostly Cloudy 1800 ft
Mostly Cloudy 2900 ft
Heat Index 75 °F
Dew Point 71 °F
Humidity 87%
Rainfall 0.01 in
Snow Depth Not available.
UV 5 out of 12
Pollen 9.30 out of 12
Air Quality Not available.
Flu Activity Not available.
METAR KASW 301635Z AUTO 23004KT 10SM BKN018 BKN029 25/21 A3008 RMK AO2
Pressure 30.08 in
Visibility 10.0 miles
Clouds Mostly Cloudy 1800 ft
Mostly Cloudy 2900 ft
Heat Index 75 °F
Dew Point 71 °F
Humidity 87%
Rainfall 0.01 in
Snow Depth Not available.
UV 5 out of 12
Pollen 9.30 out of 12
Air Quality Not available.
Flu Activity Not available.
METAR KASW 301635Z AUTO 23004KT 10SM BKN018 BKN029 25/21 A3008 RMK AO2

10-Day Weather Forecast

×

Almanac

Astronomy

Aug. 30, 2015 Rise Set
Actual Time
Civil Twilight
Nautical Twilight
Astronomical Twilight
Moon
Length of Visible Light
Length of Day
Tomorrow will be .
, % of the Moon is Illuminated

Today's Extremes

State Highs State Lows

Community

WunderPhotos

Upload Photos

1,851,008 photos uploaded!

WunderBlogs® & News

Nearby

Air Quality

  Air Quality AQ Index Pollutant
Not available.

Snow Depth

Station Depth Elevation

Earthquake Activity

City Distance Mag. Time & Date
Minimum magnitude displayed is 2.5.

Coastal Water Temperatures

Place Temperature

Stations

Nearby Weather Stations

Station Location Temp. Windchill Dew Point Humidity Wind Precip. Elev Updated Type